sensor_id;sensor_type;location;lat;lon;timestamp;pressure;altitude;pressure_sealevel;temperature;humidity
40490;BME280;26196;52.302;10.572;2023-05-08T00:03:46;101487.19;;;14.35;48.55
40490;BME280;26196;52.302;10.572;2023-05-08T00:07:46;101475.97;;;14.29;48.80
40490;BME280;26196;52.302;10.572;2023-05-08T00:11:47;101477.56;;;14.34;49.15
40490;BME280;26196;52.302;10.572;2023-05-08T00:15:48;101482.84;;;14.34;49.03
40490;BME280;26196;52.302;10.572;2023-05-08T00:19:48;101481.94;;;14.35;49.07
40490;BME280;26196;52.302;10.572;2023-05-08T00:23:48;101474.84;;;14.37;49.03
40490;BME280;26196;52.302;10.572;2023-05-08T00:27:48;101473.06;;;14.39;49.19
40490;BME280;26196;52.302;10.572;2023-05-08T00:31:49;101474.13;;;14.32;48.89
40490;BME280;26196;52.302;10.572;2023-05-08T00:35:50;101492.47;;;14.35;49.33
40490;BME280;26196;52.302;10.572;2023-05-08T00:39:50;101489.88;;;14.34;49.19
40490;BME280;26196;52.302;10.572;2023-05-08T00:43:50;101489.81;;;14.37;48.85
40490;BME280;26196;52.302;10.572;2023-05-08T00:47:51;101489.84;;;14.35;48.73
40490;BME280;26196;52.302;10.572;2023-05-08T00:51:53;101486.50;;;14.29;48.49
40490;BME280;26196;52.302;10.572;2023-05-08T00:55:54;101493.38;;;14.34;49.20
40490;BME280;26196;52.302;10.572;2023-05-08T00:59:55;101492.53;;;14.34;48.96
40490;BME280;26196;52.302;10.572;2023-05-08T01:03:55;101486.47;;;14.30;48.38
40490;BME280;26196;52.302;10.572;2023-05-08T01:07:56;101489.00;;;14.33;48.97
40490;BME280;26196;52.302;10.572;2023-05-08T01:16:08;101493.38;;;14.34;48.19
40490;BME280;26196;52.302;10.572;2023-05-08T01:20:33;101485.56;;;14.31;49.48
40490;BME280;26196;52.302;10.572;2023-05-08T01:24:48;101496.09;;;14.31;48.83
40490;BME280;26196;52.302;10.572;2023-05-08T01:29:18;101498.00;;;14.26;48.71
40490;BME280;26196;52.302;10.572;2023-05-08T01:46:04;101470.09;;;14.19;48.48
40490;BME280;26196;52.302;10.572;2023-05-08T01:50:24;101477.88;;;14.23;48.52
40490;BME280;26196;52.302;10.572;2023-05-08T01:54:36;101471.72;;;14.23;48.29
40490;BME280;26196;52.302;10.572;2023-05-08T01:58:38;101470.03;;;14.20;48.58
40490;BME280;26196;52.302;10.572;2023-05-08T02:02:41;101470.94;;;14.19;48.13
40490;BME280;26196;52.302;10.572;2023-05-08T02:06:42;101463.25;;;14.12;48.60
40490;BME280;26196;52.302;10.572;2023-05-08T02:10:44;101473.59;;;14.18;48.65
40490;BME280;26196;52.302;10.572;2023-05-08T02:14:46;101481.59;;;14.15;48.44
40490;BME280;26196;52.302;10.572;2023-05-08T02:18:51;101484.13;;;14.19;48.55
40490;BME280;26196;52.302;10.572;2023-05-08T02:22:53;101484.13;;;14.18;48.34
40490;BME280;26196;52.302;10.572;2023-05-08T02:26:55;101478.03;;;14.17;48.57
40490;BME280;26196;52.302;10.572;2023-05-08T02:30:56;101476.22;;;14.19;48.08
40490;BME280;26196;52.302;10.572;2023-05-08T02:34:58;101475.34;;;14.19;48.06
40490;BME280;26196;52.302;10.572;2023-05-08T02:38:59;101480.63;;;14.19;48.52
40490;BME280;26196;52.302;10.572;2023-05-08T02:43:01;101475.34;;;14.19;48.47
40490;BME280;26196;52.302;10.572;2023-05-08T02:47:12;101476.25;;;14.18;48.20
40490;BME280;26196;52.302;10.572;2023-05-08T02:51:38;101475.44;;;14.16;48.86
40490;BME280;26196;52.302;10.572;2023-05-08T02:55:48;101477.28;;;14.12;48.03
40490;BME280;26196;52.302;10.572;2023-05-08T03:00:07;101476.44;;;14.10;48.49
40490;BME280;26196;52.302;10.572;2023-05-08T03:04:16;101469.56;;;14.05;48.49
40490;BME280;26196;52.302;10.572;2023-05-08T03:08:33;101468.69;;;14.06;48.06
40490;BME280;26196;52.302;10.572;2023-05-08T03:12:39;101464.28;;;14.06;49.44
40490;BME280;26196;52.302;10.572;2023-05-08T03:16:41;101469.53;;;14.06;49.25
40490;BME280;26196;52.302;10.572;2023-05-08T03:20:45;101452.97;;;14.03;48.09
40490;BME280;26196;52.302;10.572;2023-05-08T03:24:47;101464.03;;;14.15;48.83
40490;BME280;26196;52.302;10.572;2023-05-08T03:28:50;101461.44;;;14.14;48.13
40490;BME280;26196;52.302;10.572;2023-05-08T03:32:51;101461.38;;;14.15;48.35
40490;BME280;26196;52.302;10.572;2023-05-08T03:36:52;101468.44;;;14.15;49.07
40490;BME280;26196;52.302;10.572;2023-05-08T03:40:53;101455.63;;;14.03;48.35
40490;BME280;26196;52.302;10.572;2023-05-08T03:44:53;101463.44;;;14.06;47.56
40490;BME280;26196;52.302;10.572;2023-05-08T03:48:54;101463.34;;;14.09;49.00
40490;BME280;26196;52.302;10.572;2023-05-08T03:52:57;101463.44;;;14.06;48.90
40490;BME280;26196;52.302;10.572;2023-05-08T03:56:58;101459.13;;;14.01;48.78
40490;BME280;26196;52.302;10.572;2023-05-08T04:01:13;101461.69;;;14.05;48.67
40490;BME280;26196;52.302;10.572;2023-05-08T04:05:26;101459.03;;;14.06;48.63
40490;BME280;26196;52.302;10.572;2023-05-08T04:09:44;101465.97;;;14.09;48.22
40490;BME280;26196;52.302;10.572;2023-05-08T04:13:53;101470.41;;;14.07;48.53
40490;BME280;26196;52.302;10.572;2023-05-08T04:18:08;101464.41;;;14.01;48.14
40490;BME280;26196;52.302;10.572;2023-05-08T04:22:10;101460.94;;;13.99;48.77
40490;BME280;26196;52.302;10.572;2023-05-08T04:26:13;101469.63;;;14.03;49.23
40490;BME280;26196;52.302;10.572;2023-05-08T04:30:16;101457.31;;;14.05;48.32
40490;BME280;26196;52.302;10.572;2023-05-08T04:34:17;101460.06;;;14.00;48.89
40490;BME280;26196;52.302;10.572;2023-05-08T04:38:17;101460.81;;;14.04;48.98
40490;BME280;26196;52.302;10.572;2023-05-08T04:42:18;101459.19;;;14.00;48.14
40490;BME280;26196;52.302;10.572;2023-05-08T04:46:18;101457.41;;;14.00;48.44
40490;BME280;26196;52.302;10.572;2023-05-08T04:50:19;101462.59;;;14.04;48.20
40490;BME280;26196;52.302;10.572;2023-05-08T04:54:19;101468.84;;;13.99;48.79
40490;BME280;26196;52.302;10.572;2023-05-08T04:58:20;101461.94;;;13.95;48.38
40490;BME280;26196;52.302;10.572;2023-05-08T05:02:20;101477.13;;;13.84;47.93
40490;BME280;26196;52.302;10.572;2023-05-08T05:06:20;101479.91;;;13.78;49.32
40490;BME280;26196;52.302;10.572;2023-05-08T05:10:21;101476.38;;;13.79;49.47
40490;BME280;26196;52.302;10.572;2023-05-08T05:14:21;101481.69;;;13.77;48.94
40490;BME280;26196;52.302;10.572;2023-05-08T05:18:21;101476.69;;;13.67;49.72
40490;BME280;26196;52.302;10.572;2023-05-08T05:22:22;101487.13;;;13.71;49.14
40490;BME280;26196;52.302;10.572;2023-05-08T05:26:22;101491.53;;;13.69;48.21
40490;BME280;26196;52.302;10.572;2023-05-08T05:30:22;101485.63;;;13.60;48.85
40490;BME280;26196;52.302;10.572;2023-05-08T05:34:23;101498.63;;;13.66;48.95
40490;BME280;26196;52.302;10.572;2023-05-08T05:38:23;101503.94;;;13.64;49.14
40490;BME280;26196;52.302;10.572;2023-05-08T05:42:24;101508.25;;;13.67;49.32
40490;BME280;26196;52.302;10.572;2023-05-08T05:46:24;101498.69;;;13.64;48.99
40490;BME280;26196;52.302;10.572;2023-05-08T05:50:30;101501.41;;;13.60;49.38
40490;BME280;26196;52.302;10.572;2023-05-08T05:54:30;101506.69;;;13.60;49.63
40490;BME280;26196;52.302;10.572;2023-05-08T05:58:30;101510.16;;;13.60;48.60
40490;BME280;26196;52.302;10.572;2023-05-08T06:02:31;101500.56;;;13.57;48.78
40490;BME280;26196;52.302;10.572;2023-05-08T06:06:32;101504.19;;;13.53;49.56
40490;BME280;26196;52.302;10.572;2023-05-08T06:10:33;101499.91;;;13.49;49.24
40490;BME280;26196;52.302;10.572;2023-05-08T06:14:34;101495.66;;;13.44;49.87
40490;BME280;26196;52.302;10.572;2023-05-08T06:18:34;101502.53;;;13.49;49.49
40490;BME280;26196;52.302;10.572;2023-05-08T06:22:34;101503.53;;;13.45;49.42
40490;BME280;26196;52.302;10.572;2023-05-08T06:26:38;101506.00;;;13.50;49.49
40490;BME280;26196;52.302;10.572;2023-05-08T06:30:38;101500.97;;;13.41;49.50
40490;BME280;26196;52.302;10.572;2023-05-08T06:34:38;101503.53;;;13.44;49.45
40490;BME280;26196;52.302;10.572;2023-05-08T06:38:39;101501.78;;;13.44;49.73
40490;BME280;26196;52.302;10.572;2023-05-08T06:42:40;101511.44;;;13.44;50.03
40490;BME280;26196;52.302;10.572;2023-05-08T06:46:40;101513.19;;;13.43;49.88
40490;BME280;26196;52.302;10.572;2023-05-08T06:50:40;101497.53;;;13.37;50.23
40490;BME280;26196;52.302;10.572;2023-05-08T06:54:42;101508.91;;;13.39;50.45
40490;BME280;26196;52.302;10.572;2023-05-08T06:58:42;101516.66;;;13.45;50.69
40490;BME280;26196;52.302;10.572;2023-05-08T07:02:42;101507.03;;;13.44;50.29
40490;BME280;26196;52.302;10.572;2023-05-08T07:06:43;101510.56;;;13.43;50.41
40490;BME280;26196;52.302;10.572;2023-05-08T07:10:43;101516.75;;;13.41;50.43
40490;BME280;26196;52.302;10.572;2023-05-08T07:14:44;101518.56;;;13.39;50.40
40490;BME280;26196;52.302;10.572;2023-05-08T07:18:44;101515.94;;;13.37;50.70
40490;BME280;26196;52.302;10.572;2023-05-08T07:22:44;101506.38;;;13.34;51.24
40490;BME280;26196;52.302;10.572;2023-05-08T07:26:45;101522.88;;;13.41;51.15
40490;BME280;26196;52.302;10.572;2023-05-08T07:30:46;101514.16;;;13.39;51.49
40490;BME280;26196;52.302;10.572;2023-05-08T07:34:46;101526.34;;;13.43;51.24
40490;BME280;26196;52.302;10.572;2023-05-08T07:38:46;101520.25;;;13.41;51.61
40490;BME280;26196;52.302;10.572;2023-05-08T07:42:47;101528.88;;;13.48;51.91
40490;BME280;26196;52.302;10.572;2023-05-08T07:46:47;101517.53;;;13.46;51.78
40490;BME280;26196;52.302;10.572;2023-05-08T07:50:48;101522.59;;;13.53;51.49
40490;BME280;26196;52.302;10.572;2023-05-08T07:54:49;101528.69;;;13.55;51.95
40490;BME280;26196;52.302;10.572;2023-05-08T07:58:49;101526.03;;;13.55;51.37
40490;BME280;26196;52.302;10.572;2023-05-08T08:02:49;101529.56;;;13.56;51.65
40490;BME280;26196;52.302;10.572;2023-05-08T08:06:50;101531.25;;;13.59;51.68
40490;BME280;26196;52.302;10.572;2023-05-08T08:10:50;101521.59;;;13.59;51.74
40490;BME280;26196;52.302;10.572;2023-05-08T08:14:51;101518.91;;;13.61;51.51
40490;BME280;26196;52.302;10.572;2023-05-08T08:18:52;101521.41;;;13.67;52.10
40490;BME280;26196;52.302;10.572;2023-05-08T08:22:52;101531.09;;;13.65;51.53
40490;BME280;26196;52.302;10.572;2023-05-08T08:26:52;101526.69;;;13.65;51.74
40490;BME280;26196;52.302;10.572;2023-05-08T08:30:52;101529.16;;;13.73;51.19
40490;BME280;26196;52.302;10.572;2023-05-08T08:34:53;101533.41;;;13.78;50.91
40490;BME280;26196;52.302;10.572;2023-05-08T08:38:53;101527.28;;;13.78;51.29
40490;BME280;26196;52.302;10.572;2023-05-08T08:42:54;101526.19;;;13.87;51.25
40490;BME280;26196;52.302;10.572;2023-05-08T08:46:57;101529.63;;;13.90;50.97
40490;BME280;26196;52.302;10.572;2023-05-08T08:50:58;101520.72;;;13.94;50.63
40490;BME280;26196;52.302;10.572;2023-05-08T08:55:01;101516.38;;;13.93;51.25
40490;BME280;26196;52.302;10.572;2023-05-08T08:59:04;101518.03;;;13.97;51.23
40490;BME280;26196;52.302;10.572;2023-05-08T09:03:05;101521.47;;;13.99;52.10
40490;BME280;26196;52.302;10.572;2023-05-08T09:07:06;101524.16;;;13.98;52.17
40490;BME280;26196;52.302;10.572;2023-05-08T09:11:08;101526.69;;;14.03;51.71
40490;BME280;26196;52.302;10.572;2023-05-08T09:15:08;101521.25;;;14.09;52.22
40490;BME280;26196;52.302;10.572;2023-05-08T09:19:09;101526.34;;;14.15;51.17
40490;BME280;26196;52.302;10.572;2023-05-08T09:23:13;101527.09;;;14.20;51.93
40490;BME280;26196;52.302;10.572;2023-05-08T09:27:20;101527.84;;;14.25;51.73
40490;BME280;26196;52.302;10.572;2023-05-08T09:31:33;101532.91;;;14.33;50.96
40490;BME280;26196;52.302;10.572;2023-05-08T09:35:36;101523.25;;;14.33;52.29
40490;BME280;26196;52.302;10.572;2023-05-08T09:39:37;101528.38;;;14.39;51.73
40490;BME280;26196;52.302;10.572;2023-05-08T09:43:42;101530.72;;;14.49;51.81
40490;BME280;26196;52.302;10.572;2023-05-08T09:47:46;101533.28;;;14.53;51.53
40490;BME280;26196;52.302;10.572;2023-05-08T09:51:51;101526.97;;;14.59;51.69
40490;BME280;26196;52.302;10.572;2023-05-08T09:55:54;101518.97;;;14.62;51.04
40490;BME280;26196;52.302;10.572;2023-05-08T10:00:04;101526.72;;;14.68;51.19
40490;BME280;26196;52.302;10.572;2023-05-08T10:04:05;101531.84;;;14.73;51.46
40490;BME280;26196;52.302;10.572;2023-05-08T10:08:22;101522.00;;;14.79;51.13
40490;BME280;26196;52.302;10.572;2023-05-08T10:12:23;101517.50;;;14.83;50.65
40490;BME280;26196;52.302;10.572;2023-05-08T10:16:27;101509.44;;;14.89;50.61
40490;BME280;26196;52.302;10.572;2023-05-08T10:20:29;101500.59;;;14.92;50.25
40490;BME280;26196;52.302;10.572;2023-05-08T10:24:32;101496.78;;;15.00;49.76
40490;BME280;26196;52.302;10.572;2023-05-08T10:28:49;101490.47;;;15.06;49.84
40490;BME280;26196;52.302;10.572;2023-05-08T10:32:50;101476.22;;;15.12;49.69
40490;BME280;26196;52.302;10.572;2023-05-08T10:36:54;101484.00;;;15.16;50.46
40490;BME280;26196;52.302;10.572;2023-05-08T10:40:59;101468.16;;;15.18;49.90
40490;BME280;26196;52.302;10.572;2023-05-08T10:45:02;101473.25;;;15.22;49.91
40490;BME280;26196;52.302;10.572;2023-05-08T10:53:18;101479.91;;;15.36;49.79
40490;BME280;26196;52.302;10.572;2023-05-08T10:57:19;101465.66;;;15.41;49.95
40490;BME280;26196;52.302;10.572;2023-05-08T11:01:19;101461.13;;;15.45;49.83
40490;BME280;26196;52.302;10.572;2023-05-08T11:05:20;101462.78;;;15.49;49.84
40490;BME280;26196;52.302;10.572;2023-05-08T11:09:26;101452.94;;;15.54;50.26
40490;BME280;26196;52.302;10.572;2023-05-08T11:14:18;101451.03;;;15.58;50.13
40490;BME280;26196;52.302;10.572;2023-05-08T11:18:02;101455.34;;;15.60;50.15
40490;BME280;26196;52.302;10.572;2023-05-08T11:22:35;101457.75;;;15.68;50.39
40490;BME280;26196;52.302;10.572;2023-05-08T11:26:38;101439.16;;;15.72;50.01
40490;BME280;26196;52.302;10.572;2023-05-08T11:30:39;101448.63;;;15.78;50.09
40490;BME280;26196;52.302;10.572;2023-05-08T11:47:40;101428.72;;;15.94;50.09
40490;BME280;26196;52.302;10.572;2023-05-08T11:51:42;101428.56;;;15.99;50.43
40490;BME280;26196;52.302;10.572;2023-05-08T11:55:51;101429.25;;;16.04;50.50
40490;BME280;26196;52.302;10.572;2023-05-08T11:59:51;101429.97;;;16.09;50.19
40490;BME280;26196;52.302;10.572;2023-05-08T12:04:01;101426.22;;;16.15;50.34
40490;BME280;26196;52.302;10.572;2023-05-08T12:08:04;101421.59;;;16.22;50.22
40490;BME280;26196;52.302;10.572;2023-05-08T12:12:05;101421.53;;;16.23;50.19
40490;BME280;26196;52.302;10.572;2023-05-08T12:16:05;101420.41;;;16.30;50.00
40490;BME280;26196;52.302;10.572;2023-05-08T12:20:17;101419.31;;;16.36;49.63
40490;BME280;26196;52.302;10.572;2023-05-08T12:24:18;101410.28;;;16.41;49.48
40490;BME280;26196;52.302;10.572;2023-05-08T12:28:21;101414.66;;;16.43;49.28
40490;BME280;26196;52.302;10.572;2023-05-08T12:32:22;101419.66;;;16.50;49.20
40490;BME280;26196;52.302;10.572;2023-05-08T12:36:22;101413.34;;;16.54;49.04
40490;BME280;26196;52.302;10.572;2023-05-08T12:40:26;101406.09;;;16.59;48.67
40490;BME280;26196;52.302;10.572;2023-05-08T12:44:28;101405.84;;;16.66;48.78
40490;BME280;26196;52.302;10.572;2023-05-08T12:48:29;101410.91;;;16.72;48.21
40490;BME280;26196;52.302;10.572;2023-05-08T12:52:30;101408.06;;;16.78;48.17
40490;BME280;26196;52.302;10.572;2023-05-08T12:56:31;101401.03;;;16.77;48.32
40490;BME280;26196;52.302;10.572;2023-05-08T13:10:51;101408.28;;;16.95;47.46
40490;BME280;26196;52.302;10.572;2023-05-08T13:14:52;101403.66;;;17.00;47.27
40490;BME280;26196;52.302;10.572;2023-05-08T13:18:52;101396.59;;;17.01;47.46
40490;BME280;26196;52.302;10.572;2023-05-08T13:22:52;101395.59;;;17.03;47.56
40490;BME280;26196;52.302;10.572;2023-05-08T13:26:53;101391.16;;;17.04;47.73
40490;BME280;26196;52.302;10.572;2023-05-08T13:30:53;101379.44;;;17.11;47.64
40490;BME280;26196;52.302;10.572;2023-05-08T13:34:53;101377.50;;;17.15;46.86
40490;BME280;26196;52.302;10.572;2023-05-08T13:38:54;101378.13;;;17.21;46.44
40490;BME280;26196;52.302;10.572;2023-05-08T13:42:56;101379.72;;;17.25;46.72
40490;BME280;26196;52.302;10.572;2023-05-08T13:46:56;101368.13;;;17.28;46.37
40490;BME280;26196;52.302;10.572;2023-05-08T13:50:56;101371.53;;;17.32;45.87
40490;BME280;26196;52.302;10.572;2023-05-08T13:54:57;101367.69;;;17.39;45.58
40490;BME280;26196;52.302;10.572;2023-05-08T13:58:57;101362.34;;;17.40;45.04
40490;BME280;26196;52.302;10.572;2023-05-08T14:02:58;101350.81;;;17.41;45.48
40490;BME280;26196;52.302;10.572;2023-05-08T14:11:28;101351.25;;;17.53;44.85
40490;BME280;26196;52.302;10.572;2023-05-08T14:15:28;101346.75;;;17.55;44.78
40490;BME280;26196;52.302;10.572;2023-05-08T14:19:29;101349.19;;;17.59;44.61
40490;BME280;26196;52.302;10.572;2023-05-08T14:23:29;101348.19;;;17.62;44.11
40490;BME280;26196;52.302;10.572;2023-05-08T14:27:30;101342.88;;;17.62;44.53
40490;BME280;26196;52.302;10.572;2023-05-08T14:31:30;101347.28;;;17.63;44.42
40490;BME280;26196;52.302;10.572;2023-05-08T14:35:30;101350.59;;;17.68;44.26
40490;BME280;26196;52.302;10.572;2023-05-08T14:39:31;101347.00;;;17.69;44.15
40490;BME280;26196;52.302;10.572;2023-05-08T14:43:31;101347.72;;;17.72;44.16
40490;BME280;26196;52.302;10.572;2023-05-08T14:47:32;101342.38;;;17.74;44.47
40490;BME280;26196;52.302;10.572;2023-05-08T14:51:32;101344.88;;;17.77;44.01
40490;BME280;26196;52.302;10.572;2023-05-08T14:55:33;101343.06;;;17.79;44.05
40490;BME280;26196;52.302;10.572;2023-05-08T14:59:33;101323.69;;;17.77;43.91
40490;BME280;26196;52.302;10.572;2023-05-08T15:03:33;101334.13;;;17.82;43.68
40490;BME280;26196;52.302;10.572;2023-05-08T15:07:35;101330.47;;;17.84;43.32
40490;BME280;26196;52.302;10.572;2023-05-08T15:11:35;101330.47;;;17.84;43.81
40490;BME280;26196;52.302;10.572;2023-05-08T15:15:36;101320.75;;;17.85;43.36
40490;BME280;26196;52.302;10.572;2023-05-08T15:19:36;101319.75;;;17.87;42.92
40490;BME280;26196;52.302;10.572;2023-05-08T15:23:37;101309.94;;;17.89;42.83
40490;BME280;26196;52.302;10.572;2023-05-08T15:27:37;101317.84;;;17.91;42.10
40490;BME280;26196;52.302;10.572;2023-05-08T15:31:38;101308.00;;;17.93;41.55
40490;BME280;26196;52.302;10.572;2023-05-08T15:35:38;101303.72;;;17.90;42.04
40490;BME280;26196;52.302;10.572;2023-05-08T15:39:39;101305.34;;;17.93;42.33
40490;BME280;26196;52.302;10.572;2023-05-08T15:43:39;101309.75;;;17.94;42.08
40490;BME280;26196;52.302;10.572;2023-05-08T15:47:39;101306.94;;;17.97;42.60
40490;BME280;26196;52.302;10.572;2023-05-08T15:51:40;101305.16;;;17.98;41.98
40490;BME280;26196;52.302;10.572;2023-05-08T15:55:40;101306.00;;;17.98;42.13
40490;BME280;26196;52.302;10.572;2023-05-08T15:59:41;101305.09;;;17.99;42.66
40490;BME280;26196;52.302;10.572;2023-05-08T16:03:41;101301.56;;;17.99;41.57
40490;BME280;26196;52.302;10.572;2023-05-08T16:07:42;101301.50;;;18.00;41.88
40490;BME280;26196;52.302;10.572;2023-05-08T16:11:43;101291.91;;;17.98;42.17
40490;BME280;26196;52.302;10.572;2023-05-08T16:15:44;101302.22;;;18.04;41.81
40490;BME280;26196;52.302;10.572;2023-05-08T16:19:44;101306.66;;;18.03;42.15
40490;BME280;26196;52.302;10.572;2023-05-08T16:23:45;101303.97;;;18.05;41.96
40490;BME280;26196;52.302;10.572;2023-05-08T16:27:45;101304.81;;;18.05;42.03
40490;BME280;26196;52.302;10.572;2023-05-08T16:31:45;101291.56;;;18.05;42.03
40490;BME280;26196;52.302;10.572;2023-05-08T16:35:46;101286.25;;;18.05;42.29
40490;BME280;26196;52.302;10.572;2023-05-08T16:39:46;101289.91;;;18.03;43.27
40490;BME280;26196;52.302;10.572;2023-05-08T16:43:46;101286.25;;;18.05;42.43
40490;BME280;26196;52.302;10.572;2023-05-08T16:47:46;101294.16;;;18.07;42.35
40490;BME280;26196;52.302;10.572;2023-05-08T16:51:47;101287.06;;;18.07;42.63
40490;BME280;26196;52.302;10.572;2023-05-08T16:55:47;101289.75;;;18.06;42.67
40490;BME280;26196;52.302;10.572;2023-05-08T16:59:48;101283.56;;;18.07;41.78
40490;BME280;26196;52.302;10.572;2023-05-08T17:03:48;101283.47;;;18.08;41.46
40490;BME280;26196;52.302;10.572;2023-05-08T17:07:48;101282.75;;;18.05;40.91
40490;BME280;26196;52.302;10.572;2023-05-08T17:11:49;101285.41;;;18.05;41.15
40490;BME280;26196;52.302;10.572;2023-05-08T17:15:49;101282.81;;;18.03;41.29
40490;BME280;26196;52.302;10.572;2023-05-08T17:19:50;101283.75;;;18.02;40.65
40490;BME280;26196;52.302;10.572;2023-05-08T17:23:50;101278.53;;;18.01;40.33
40490;BME280;26196;52.302;10.572;2023-05-08T17:27:50;101275.06;;;17.99;40.17
40490;BME280;26196;52.302;10.572;2023-05-08T17:31:51;101274.16;;;18.00;40.42
40490;BME280;26196;52.302;10.572;2023-05-08T17:35:51;101278.66;;;17.98;40.42
40490;BME280;26196;52.302;10.572;2023-05-08T17:39:51;101281.31;;;17.98;40.38
40490;BME280;26196;52.302;10.572;2023-05-08T17:43:52;101282.25;;;17.97;40.13
40490;BME280;26196;52.302;10.572;2023-05-08T17:47:53;101276.97;;;17.97;40.71
40490;BME280;26196;52.302;10.572;2023-05-08T17:51:53;101271.72;;;17.95;40.30
40490;BME280;26196;52.302;10.572;2023-05-08T17:55:53;101281.47;;;17.95;40.96
40490;BME280;26196;52.302;10.572;2023-05-08T17:59:54;101284.97;;;17.95;42.56
40490;BME280;26196;52.302;10.572;2023-05-08T18:03:54;101290.25;;;17.95;41.62
40490;BME280;26196;52.302;10.572;2023-05-08T18:07:55;101285.16;;;17.90;40.70
40490;BME280;26196;52.302;10.572;2023-05-08T18:11:56;101298.34;;;17.92;41.32
40490;BME280;26196;52.302;10.572;2023-05-08T18:16:01;101290.75;;;17.84;41.84
40490;BME280;26196;52.302;10.572;2023-05-08T18:20:01;101297.69;;;17.87;42.10
40490;BME280;26196;52.302;10.572;2023-05-08T18:24:06;101300.50;;;17.84;42.81
40490;BME280;26196;52.302;10.572;2023-05-08T18:28:07;101298.75;;;17.83;43.33
40490;BME280;26196;52.302;10.572;2023-05-08T18:32:07;101301.41;;;17.83;43.22
40490;BME280;26196;52.302;10.572;2023-05-08T18:36:07;101291.81;;;17.80;43.05
40490;BME280;26196;52.302;10.572;2023-05-08T18:40:08;101298.94;;;17.78;42.88
40490;BME280;26196;52.302;10.572;2023-05-08T18:44:09;101307.69;;;17.80;43.80
40490;BME280;26196;52.302;10.572;2023-05-08T18:48:10;101306.91;;;17.78;44.41
40490;BME280;26196;52.302;10.572;2023-05-08T18:52:10;101314.78;;;17.80;43.28
40490;BME280;26196;52.302;10.572;2023-05-08T18:56:11;101303.59;;;17.73;44.53
40490;BME280;26196;52.302;10.572;2023-05-08T19:00:12;101311.28;;;17.79;44.75
40490;BME280;26196;52.302;10.572;2023-05-08T19:04:13;101309.66;;;17.75;44.09
40490;BME280;26196;52.302;10.572;2023-05-08T19:08:13;101311.28;;;17.79;44.91
40490;BME280;26196;52.302;10.572;2023-05-08T19:12:15;101308.75;;;17.76;43.68
40490;BME280;26196;52.302;10.572;2023-05-08T19:16:15;101317.59;;;17.75;44.04
40490;BME280;26196;52.302;10.572;2023-05-08T19:20:16;101317.59;;;17.75;43.65
40490;BME280;26196;52.302;10.572;2023-05-08T19:24:16;101316.69;;;17.76;44.35
40490;BME280;26196;52.302;10.572;2023-05-08T19:28:19;101324.78;;;17.73;43.31
40490;BME280;26196;52.302;10.572;2023-05-08T19:32:20;101338.06;;;17.71;43.55
40490;BME280;26196;52.302;10.572;2023-05-08T19:36:20;101326.69;;;17.69;44.10
40490;BME280;26196;52.302;10.572;2023-05-08T19:40:20;101328.53;;;17.67;42.97
40490;BME280;26196;52.302;10.572;2023-05-08T19:44:21;101326.75;;;17.68;43.64
40490;BME280;26196;52.302;10.572;2023-05-08T19:48:21;101313.00;;;17.60;42.86
40490;BME280;26196;52.302;10.572;2023-05-08T19:52:22;101326.16;;;17.61;42.03
40490;BME280;26196;52.302;10.572;2023-05-08T19:56:22;101328.94;;;17.58;42.56
40490;BME280;26196;52.302;10.572;2023-05-08T20:00:22;101333.53;;;17.55;42.60
40490;BME280;26196;52.302;10.572;2023-05-08T20:04:23;101328.22;;;17.55;42.56
40490;BME280;26196;52.302;10.572;2023-05-08T20:08:23;101332.72;;;17.53;41.59
40490;BME280;26196;52.302;10.572;2023-05-08T20:12:23;101325.91;;;17.47;42.16
40490;BME280;26196;52.302;10.572;2023-05-08T20:16:24;101323.44;;;17.42;42.29
40490;BME280;26196;52.302;10.572;2023-05-08T20:20:24;101319.88;;;17.43;41.32
40490;BME280;26196;52.302;10.572;2023-05-08T20:24:26;101305.97;;;17.38;41.39
40490;BME280;26196;52.302;10.572;2023-05-08T20:28:26;101314.72;;;17.40;41.53
40490;BME280;26196;52.302;10.572;2023-05-08T20:32:26;101316.78;;;17.34;41.50
40490;BME280;26196;52.302;10.572;2023-05-08T20:36:27;101318.44;;;17.36;40.67
40490;BME280;26196;52.302;10.572;2023-05-08T20:40:27;101316.69;;;17.35;41.69
40490;BME280;26196;52.302;10.572;2023-05-08T20:44:27;101316.78;;;17.34;41.08
40490;BME280;26196;52.302;10.572;2023-05-08T20:48:28;101311.53;;;17.32;41.60
40490;BME280;26196;52.302;10.572;2023-05-08T20:52:28;101308.09;;;17.30;41.62
40490;BME280;26196;52.302;10.572;2023-05-08T20:56:31;101312.47;;;17.31;42.25
40490;BME280;26196;52.302;10.572;2023-05-08T21:00:31;101308.16;;;17.28;41.64
40490;BME280;26196;52.302;10.572;2023-05-08T21:04:33;101307.38;;;17.26;40.71
40490;BME280;26196;52.302;10.572;2023-05-08T21:08:33;101311.91;;;17.23;41.30
40490;BME280;26196;52.302;10.572;2023-05-08T21:12:35;101296.84;;;17.25;41.02
40490;BME280;26196;52.302;10.572;2023-05-08T21:16:35;101296.16;;;17.20;40.64
40490;BME280;26196;52.302;10.572;2023-05-08T21:20:36;101290.16;;;17.16;40.44
40490;BME280;26196;52.302;10.572;2023-05-08T21:24:41;101279.72;;;17.13;40.69
40490;BME280;26196;52.302;10.572;2023-05-08T21:28:42;101282.41;;;17.12;40.40
40490;BME280;26196;52.302;10.572;2023-05-08T21:32:43;101280.69;;;17.11;40.57
40490;BME280;26196;52.302;10.572;2023-05-08T21:36:44;101282.41;;;17.12;39.75
40490;BME280;26196;52.302;10.572;2023-05-08T21:40:44;101268.50;;;17.06;39.75